PRW weather

Prentice Airport
Prentice, Wisconsin, United States

Public forecast

Using degrees Fahrenheit for public forecast. Weather courtesy of forecast.io.

Closest aviation weather report (METAR) to Prentice Airport

Closest report is Price County Airport, 11.2 nm (20.8 km) NNW. Retrieved 2019/10/21 16:35 UTC (0 seconds ago):

KPBH 211635Z AUTO 10012G20KT 7SM -RA OVC019 10/09 A2943 RMK AO2 P0003 T01020092

Closest aviation forecast (TAF) to Prentice Airport

Closest forecast is Rhinelander Oneida County Airport, 34.5 nm (63.9 km) E. Retrieved 2019/10/21 12:22 UTC (4 hours ago):

TAF KRHI 211120Z 2112/2212 10009G16KT P6SM SCT020 OVC035 WS020/13040KT TEMPO 2112/2113 -SHRA BKN020 FM211300 11011G22KT 5SM SHRA BR OVC011 WS020/12040KT FM211600 11011G23KT 2SM +SHRA BR OVC005 WS020/12045KT FM212100 14008G19KT 5SM -SHRA BR OVC015 FM220000 16009G15KT P6SM SCT020 OVC035 WS020/19035KT TEMPO 2203/2206 4SM -SHRA BR BKN018 FM220600 17008G15KT 4SM -SHRA OVC017 FM220900 17008G15KT 3SM -SHRA OVC006